sensor_id;sensor_type;location;lat;lon;timestamp;pressure;altitude;pressure_sealevel;temperature;humidity
33486;BME280;19824;52.098;5.004;2023-04-05T05:02:50;102433.75;;;3.70;66.54
33486;BME280;19824;52.098;5.004;2023-04-05T05:05:33;102430.16;;;3.71;66.29
33486;BME280;19824;52.098;5.004;2023-04-05T05:08:10;102434.59;;;3.71;66.38
33486;BME280;19824;52.098;5.004;2023-04-05T05:10:41;102431.03;;;3.72;66.74
33486;BME280;19824;52.098;5.004;2023-04-05T05:13:18;102431.03;;;3.72;66.54
33486;BME280;19824;52.098;5.004;2023-04-05T05:15:48;102442.41;;;3.72;66.19
33486;BME280;19824;52.098;5.004;2023-04-05T05:18:28;102424.84;;;3.73;66.75
33486;BME280;19824;52.098;5.004;2023-04-05T05:20:58;102428.22;;;3.76;67.01
33486;BME280;19824;52.098;5.004;2023-04-05T05:23:35;102435.19;;;3.77;66.63
33486;BME280;19824;52.098;5.004;2023-04-05T05:26:05;102442.13;;;3.80;67.10
33486;BME280;19824;52.098;5.004;2023-04-05T05:28:42;102434.22;;;3.80;67.07
33486;BME280;19824;52.098;5.004;2023-04-05T05:31:13;102436.69;;;3.84;67.07
33486;BME280;19824;52.098;5.004;2023-04-05T05:33:53;102432.97;;;3.88;67.20
33486;BME280;19824;52.098;5.004;2023-04-05T05:36:24;102429.16;;;4.16;67.80
33486;BME280;19824;52.098;5.004;2023-04-05T05:39:01;102423.72;;;4.61;68.10
33486;BME280;19824;52.098;5.004;2023-04-05T05:41:32;102420.97;;;4.82;67.76
33486;BME280;19824;52.098;5.004;2023-04-05T05:44:09;102429.44;;;5.08;68.00
33486;BME280;19824;52.098;5.004;2023-04-05T05:46:39;102423.56;;;5.57;67.65
33486;BME280;19824;52.098;5.004;2023-04-05T05:49:19;102423.97;;;6.20;66.95
33486;BME280;19824;52.098;5.004;2023-04-05T05:51:56;102426.72;;;6.85;66.97
33486;BME280;19824;52.098;5.004;2023-04-05T05:54:33;102421.81;;;7.10;66.07
33486;BME280;19824;52.098;5.004;2023-04-05T05:57:10;102426.91;;;7.30;65.81
33486;BME280;19824;52.098;5.004;2023-04-05T05:59:40;102423.56;;;7.57;65.31
33486;BME280;19824;52.098;5.004;2023-04-05T06:02:17;102420.41;;;7.51;64.33
33486;BME280;19824;52.098;5.004;2023-04-05T06:04:57;102427.94;;;7.43;63.86
33486;BME280;19824;52.098;5.004;2023-04-05T06:07:35;102427.84;;;7.60;63.63
33486;BME280;19824;52.098;5.004;2023-04-05T06:10:12;102427.97;;;8.18;62.87
33486;BME280;19824;52.098;5.004;2023-04-05T06:12:43;102427.75;;;8.80;61.56
33486;BME280;19824;52.098;5.004;2023-04-05T06:15:20;102431.44;;;9.33;60.71
33486;BME280;19824;52.098;5.004;2023-04-05T06:17:50;102428.25;;;9.95;59.83
33486;BME280;19824;52.098;5.004;2023-04-05T06:20:30;102427.81;;;10.54;57.30
33486;BME280;19824;52.098;5.004;2023-04-05T06:23:00;102422.94;;;11.10;56.67
33486;BME280;19824;52.098;5.004;2023-04-05T06:25:37;102427.09;;;11.74;54.97
33486;BME280;19824;52.098;5.004;2023-04-05T06:28:08;102418.75;;;12.26;53.82
33486;BME280;19824;52.098;5.004;2023-04-05T06:30:45;102409.06;;;12.81;53.05
33486;BME280;19824;52.098;5.004;2023-04-05T06:33:22;102410.81;;;13.37;51.76
33486;BME280;19824;52.098;5.004;2023-04-05T06:35:55;102406.84;;;13.84;50.58
33486;BME280;19824;52.098;5.004;2023-04-05T06:38:32;102404.97;;;14.38;48.92
33486;BME280;19824;52.098;5.004;2023-04-05T06:41:02;102402.22;;;14.69;48.61
33486;BME280;19824;52.098;5.004;2023-04-05T06:43:40;102399.88;;;15.06;47.42
33486;BME280;19824;52.098;5.004;2023-04-05T06:46:17;102402.38;;;15.58;46.03
33486;BME280;19824;52.098;5.004;2023-04-05T06:48:48;102393.84;;;16.01;44.99
33486;BME280;19824;52.098;5.004;2023-04-05T06:51:27;102406.34;;;16.40;44.29
33486;BME280;19824;52.098;5.004;2023-04-05T06:53:58;102397.09;;;16.71;43.04
33486;BME280;19824;52.098;5.004;2023-04-05T06:56:34;102402.13;;;16.93;42.85
33486;BME280;19824;52.098;5.004;2023-04-05T06:59:05;102398.09;;;17.16;41.48
33486;BME280;19824;52.098;5.004;2023-04-05T07:01:41;102397.72;;;17.38;40.47
33486;BME280;19824;52.098;5.004;2023-04-05T07:04:18;102394.47;;;17.61;40.63
33486;BME280;19824;52.098;5.004;2023-04-05T07:06:51;102390.09;;;17.60;39.35
33486;BME280;19824;52.098;5.004;2023-04-05T07:09:31;102388.38;;;17.86;39.35
33486;BME280;19824;52.098;5.004;2023-04-05T07:12:05;102385.81;;;18.29;38.22
33486;BME280;19824;52.098;5.004;2023-04-05T07:14:42;102382.91;;;18.65;37.55
33486;BME280;19824;52.098;5.004;2023-04-05T07:17:12;102389.69;;;18.94;36.97
33486;BME280;19824;52.098;5.004;2023-04-05T07:19:49;102392.13;;;19.31;37.01
33486;BME280;19824;52.098;5.004;2023-04-05T07:22:29;102390.72;;;19.60;36.44
33486;BME280;19824;52.098;5.004;2023-04-05T07:24:59;102383.88;;;19.89;35.76
33486;BME280;19824;52.098;5.004;2023-04-05T07:27:35;102381.59;;;20.10;35.63
33486;BME280;19824;52.098;5.004;2023-04-05T07:30:07;102386.00;;;20.27;35.21
33486;BME280;19824;52.098;5.004;2023-04-05T07:32:44;102378.91;;;20.42;34.64
33486;BME280;19824;52.098;5.004;2023-04-05T07:35:15;102378.91;;;20.58;34.94
33486;BME280;19824;52.098;5.004;2023-04-05T07:37:54;102385.00;;;20.60;33.78
33486;BME280;19824;52.098;5.004;2023-04-05T07:40:26;102381.22;;;20.77;33.98
33486;BME280;19824;52.098;5.004;2023-04-05T07:43:03;102374.28;;;20.74;33.88
33486;BME280;19824;52.098;5.004;2023-04-05T07:45:40;102386.00;;;20.83;32.89
33486;BME280;19824;52.098;5.004;2023-04-05T07:48:10;102382.91;;;21.02;33.03
33486;BME280;19824;52.098;5.004;2023-04-05T07:50:47;102378.09;;;21.28;32.00
33486;BME280;19824;52.098;5.004;2023-04-05T07:53:22;102380.44;;;21.31;31.26
33486;BME280;19824;52.098;5.004;2023-04-05T07:56:02;102375.16;;;21.45;31.38
33486;BME280;19824;52.098;5.004;2023-04-05T07:58:33;102375.72;;;21.71;31.82
33486;BME280;19824;52.098;5.004;2023-04-05T08:01:13;102377.38;;;22.02;31.43
33486;BME280;19824;52.098;5.004;2023-04-05T08:03:50;102378.84;;;22.13;31.62
33486;BME280;19824;52.098;5.004;2023-04-05T08:06:20;102365.13;;;22.37;30.48
33486;BME280;19824;52.098;5.004;2023-04-05T08:09:00;102373.19;;;22.45;29.95
33486;BME280;19824;52.098;5.004;2023-04-05T08:11:31;102364.69;;;22.62;29.95
33486;BME280;19824;52.098;5.004;2023-04-05T08:14:08;102364.94;;;22.75;30.29
33486;BME280;19824;52.098;5.004;2023-04-05T08:16:45;102360.16;;;22.91;29.88
33486;BME280;19824;52.098;5.004;2023-04-05T08:19:16;102367.19;;;22.86;30.08
33486;BME280;19824;52.098;5.004;2023-04-05T08:21:53;102363.75;;;23.06;29.17
33486;BME280;19824;52.098;5.004;2023-04-05T08:24:33;102362.91;;;23.20;29.26
33486;BME280;19824;52.098;5.004;2023-04-05T08:27:10;102365.44;;;23.36;29.73
33486;BME280;19824;52.098;5.004;2023-04-05T08:29:41;102365.53;;;23.43;28.59
33486;BME280;19824;52.098;5.004;2023-04-05T08:32:17;102356.91;;;23.54;29.03
33486;BME280;19824;52.098;5.004;2023-04-05T08:34:54;102359.00;;;23.72;28.47
33486;BME280;19824;52.098;5.004;2023-04-05T08:37:25;102354.69;;;24.13;28.07
33486;BME280;19824;52.098;5.004;2023-04-05T08:40:05;102355.31;;;24.36;27.07
33486;BME280;19824;52.098;5.004;2023-04-05T08:42:51;102359.06;;;24.35;26.82
33486;BME280;19824;52.098;5.004;2023-04-05T08:45:22;102354.41;;;24.50;26.41
33486;BME280;19824;52.098;5.004;2023-04-05T08:48:00;102347.00;;;24.44;26.25
33486;BME280;19824;52.098;5.004;2023-04-05T08:50:30;102349.09;;;24.42;26.29
33486;BME280;19824;52.098;5.004;2023-04-05T08:53:08;102350.47;;;24.53;25.74
33486;BME280;19824;52.098;5.004;2023-04-05T08:55:41;102348.84;;;24.58;25.15
33486;BME280;19824;52.098;5.004;2023-04-05T08:58:21;102355.03;;;24.73;25.18
33486;BME280;19824;52.098;5.004;2023-04-05T09:00:58;102345.28;;;24.64;25.21
33486;BME280;19824;52.098;5.004;2023-04-05T09:03:34;102342.56;;;24.64;25.49
33486;BME280;19824;52.098;5.004;2023-04-05T09:06:12;102341.13;;;24.95;25.01
33486;BME280;19824;52.098;5.004;2023-04-05T09:08:43;102343.03;;;25.29;24.57
33486;BME280;19824;52.098;5.004;2023-04-05T09:11:24;102340.38;;;25.08;24.30
33486;BME280;19824;52.098;5.004;2023-04-05T09:13:54;102335.03;;;25.21;24.13
33486;BME280;19824;52.098;5.004;2023-04-05T09:16:33;102337.63;;;25.42;23.98
33486;BME280;19824;52.098;5.004;2023-04-05T09:19:06;102343.44;;;25.32;24.08
33486;BME280;19824;52.098;5.004;2023-04-05T09:22:00;102342.03;;;25.09;23.58
33486;BME280;19824;52.098;5.004;2023-04-05T09:24:33;102336.38;;;25.38;24.18
33486;BME280;19824;52.098;5.004;2023-04-05T09:27:16;102335.47;;;25.31;23.80
33486;BME280;19824;52.098;5.004;2023-04-05T09:29:52;102327.00;;;25.66;24.37
33486;BME280;19824;52.098;5.004;2023-04-05T09:32:25;102327.25;;;25.77;24.00
33486;BME280;19824;52.098;5.004;2023-04-05T09:35:05;102322.28;;;25.87;23.57
33486;BME280;19824;52.098;5.004;2023-04-05T09:37:35;102331.22;;;24.88;22.94
33486;BME280;19824;52.098;5.004;2023-04-05T09:40:12;102318.41;;;25.63;24.83
33486;BME280;19824;52.098;5.004;2023-04-05T09:42:47;102320.03;;;25.51;23.22
33486;BME280;19824;52.098;5.004;2023-04-05T09:45:27;102328.38;;;25.36;23.76
33486;BME280;19824;52.098;5.004;2023-04-05T09:48:00;102326.72;;;25.42;23.76
33486;BME280;19824;52.098;5.004;2023-04-05T09:50:37;102328.53;;;24.94;23.34
33486;BME280;19824;52.098;5.004;2023-04-05T09:53:10;102320.16;;;24.96;23.52
33486;BME280;19824;52.098;5.004;2023-04-05T09:55:49;102328.31;;;25.23;24.44
33486;BME280;19824;52.098;5.004;2023-04-05T09:58:31;102326.91;;;25.34;24.01
33486;BME280;19824;52.098;5.004;2023-04-05T10:01:04;102319.28;;;25.70;23.48
33486;BME280;19824;52.098;5.004;2023-04-05T10:03:46;102316.69;;;25.55;24.12
33486;BME280;19824;52.098;5.004;2023-04-05T10:06:17;102316.56;;;25.76;23.73
33486;BME280;19824;52.098;5.004;2023-04-05T10:08:53;102307.81;;;25.93;23.95
33486;BME280;19824;52.098;5.004;2023-04-05T10:11:24;102305.09;;;26.19;24.57
33486;BME280;19824;52.098;5.004;2023-04-05T10:14:06;102295.44;;;26.23;24.33
33486;BME280;19824;52.098;5.004;2023-04-05T10:16:50;102302.34;;;26.06;23.47
33486;BME280;19824;52.098;5.004;2023-04-05T10:19:28;102305.72;;;26.08;23.13
33486;BME280;19824;52.098;5.004;2023-04-05T10:22:21;102296.88;;;26.00;23.29
33486;BME280;19824;52.098;5.004;2023-04-05T10:24:59;102295.66;;;26.09;22.80
33486;BME280;19824;52.098;5.004;2023-04-05T10:27:46;102294.13;;;25.80;22.95
33486;BME280;19824;52.098;5.004;2023-04-05T10:30:20;102294.09;;;25.74;23.06
33486;BME280;19824;52.098;5.004;2023-04-05T10:33:09;102295.75;;;25.62;22.59
33486;BME280;19824;52.098;5.004;2023-04-05T10:36:06;102292.56;;;25.59;22.59
33486;BME280;19824;52.098;5.004;2023-04-05T10:38:50;102284.41;;;25.72;24.08
33486;BME280;19824;52.098;5.004;2023-04-05T10:41:35;102281.94;;;25.89;23.99
33486;BME280;19824;52.098;5.004;2023-04-05T10:44:09;102287.81;;;25.86;23.29
33486;BME280;19824;52.098;5.004;2023-04-05T10:46:55;102286.47;;;25.57;23.02
33486;BME280;19824;52.098;5.004;2023-04-05T10:49:39;102292.22;;;25.28;23.39
33486;BME280;19824;52.098;5.004;2023-04-05T10:52:18;102281.00;;;25.57;23.12
33486;BME280;19824;52.098;5.004;2023-04-05T10:54:57;102290.28;;;25.62;23.18
33486;BME280;19824;52.098;5.004;2023-04-05T10:57:29;102275.16;;;25.73;23.06
33486;BME280;19824;52.098;5.004;2023-04-05T11:00:09;102271.78;;;25.71;23.06
33486;BME280;19824;52.098;5.004;2023-04-05T11:02:42;102268.44;;;25.62;24.02
33486;BME280;19824;52.098;5.004;2023-04-05T11:05:31;102266.22;;;25.32;22.63
33486;BME280;19824;52.098;5.004;2023-04-05T11:08:10;102265.25;;;25.05;23.08
33486;BME280;19824;52.098;5.004;2023-04-05T11:10:47;102262.03;;;24.89;22.90
33486;BME280;19824;52.098;5.004;2023-04-05T11:13:52;102267.69;;;24.94;22.89
33486;BME280;19824;52.098;5.004;2023-04-05T11:16:38;102259.59;;;25.07;22.74
33486;BME280;19824;52.098;5.004;2023-04-05T11:19:11;102265.66;;;25.09;24.36
33486;BME280;19824;52.098;5.004;2023-04-05T11:22:00;102255.53;;;25.24;24.29
33486;BME280;19824;52.098;5.004;2023-04-05T11:24:50;102257.50;;;25.09;23.34
33486;BME280;19824;52.098;5.004;2023-04-05T11:27:31;102257.56;;;24.75;23.68
33486;BME280;19824;52.098;5.004;2023-04-05T11:30:06;102250.41;;;24.74;24.30
33486;BME280;19824;52.098;5.004;2023-04-05T11:32:44;102254.19;;;24.73;23.87
33486;BME280;19824;52.098;5.004;2023-04-05T11:35:18;102248.03;;;24.37;23.62
33486;BME280;19824;52.098;5.004;2023-04-05T11:38:05;102253.00;;;24.27;24.74
33486;BME280;19824;52.098;5.004;2023-04-05T11:40:38;102239.72;;;24.45;23.97
33486;BME280;19824;52.098;5.004;2023-04-05T11:43:16;102236.69;;;24.34;24.66
33486;BME280;19824;52.098;5.004;2023-04-05T11:45:53;102241.78;;;24.43;24.96
33486;BME280;19824;52.098;5.004;2023-04-05T11:48:24;102242.69;;;24.50;24.15
33486;BME280;19824;52.098;5.004;2023-04-05T11:51:07;102231.28;;;24.40;23.19
33486;BME280;19824;52.098;5.004;2023-04-05T11:53:38;102230.13;;;24.49;23.60
33486;BME280;19824;52.098;5.004;2023-04-05T11:56:17;102226.59;;;24.28;23.89
33486;BME280;19824;52.098;5.004;2023-04-05T11:58:57;102226.44;;;23.67;24.67
33486;BME280;19824;52.098;5.004;2023-04-05T12:01:28;102223.88;;;23.79;25.15
33486;BME280;19824;52.098;5.004;2023-04-05T12:04:06;102227.16;;;23.96;24.61
33486;BME280;19824;52.098;5.004;2023-04-05T12:06:39;102217.84;;;23.84;25.52
33486;BME280;19824;52.098;5.004;2023-04-05T12:09:16;102217.91;;;23.70;25.33
33486;BME280;19824;52.098;5.004;2023-04-05T12:11:46;102217.44;;;23.45;25.66
33486;BME280;19824;52.098;5.004;2023-04-05T12:14:28;102213.16;;;23.36;25.04
33486;BME280;19824;52.098;5.004;2023-04-05T12:17:01;102210.69;;;23.41;25.58
33486;BME280;19824;52.098;5.004;2023-04-05T12:19:38;102210.88;;;23.19;25.07
33486;BME280;19824;52.098;5.004;2023-04-05T12:22:17;102208.81;;;23.06;25.03
33486;BME280;19824;52.098;5.004;2023-04-05T12:24:47;102210.44;;;22.72;24.72
33486;BME280;19824;52.098;5.004;2023-04-05T12:27:25;102206.34;;;22.10;25.14
33486;BME280;19824;52.098;5.004;2023-04-05T12:30:07;102208.44;;;21.86;24.98
33486;BME280;19824;52.098;5.004;2023-04-05T12:32:45;102210.63;;;21.68;24.80
33486;BME280;19824;52.098;5.004;2023-04-05T12:35:18;102201.69;;;21.37;26.00
33486;BME280;19824;52.098;5.004;2023-04-05T12:38:00;102204.94;;;21.33;26.20
33486;BME280;19824;52.098;5.004;2023-04-05T12:40:34;102202.00;;;21.12;26.54
33486;BME280;19824;52.098;5.004;2023-04-05T12:43:11;102199.47;;;20.72;27.12
33486;BME280;19824;52.098;5.004;2023-04-05T12:45:46;102202.25;;;20.56;27.32
33486;BME280;19824;52.098;5.004;2023-04-05T12:48:26;102192.09;;;20.50;27.47
33486;BME280;19824;52.098;5.004;2023-04-05T12:51:13;102190.22;;;20.59;27.29
33486;BME280;19824;52.098;5.004;2023-04-05T12:53:56;102189.72;;;20.47;27.84
33486;BME280;19824;52.098;5.004;2023-04-05T12:56:27;102183.69;;;20.45;28.62
33486;BME280;19824;52.098;5.004;2023-04-05T12:59:05;102189.38;;;20.50;28.04
33486;BME280;19824;52.098;5.004;2023-04-05T13:01:37;102181.94;;;20.52;28.06
